sensor_id;sensor_type;location;lat;lon;timestamp;P1;durP1;ratioP1;P2;durP2;ratioP2
16294;SDS011;8255;49.560;8.244;2023-03-01T00:02:03;14.43;;;8.53;;
16294;SDS011;8255;49.560;8.244;2023-03-01T00:04:31;11.67;;;7.97;;
16294;SDS011;8255;49.560;8.244;2023-03-01T00:06:58;10.67;;;7.80;;
16294;SDS011;8255;49.560;8.244;2023-03-01T00:09:24;12.07;;;8.93;;
16294;SDS011;8255;49.560;8.244;2023-03-01T00:11:50;10.70;;;8.17;;
16294;SDS011;8255;49.560;8.244;2023-03-01T00:14:17;10.77;;;8.60;;
16294;SDS011;8255;49.560;8.244;2023-03-01T00:16:44;11.20;;;7.70;;
16294;SDS011;8255;49.560;8.244;2023-03-01T00:19:11;9.93;;;7.87;;
16294;SDS011;8255;49.560;8.244;2023-03-01T00:21:39;10.27;;;7.57;;
16294;SDS011;8255;49.560;8.244;2023-03-01T00:24:05;12.30;;;7.50;;
16294;SDS011;8255;49.560;8.244;2023-03-01T00:26:32;8.63;;;7.60;;
16294;SDS011;8255;49.560;8.244;2023-03-01T00:28:58;9.80;;;7.47;;
16294;SDS011;8255;49.560;8.244;2023-03-01T00:31:25;9.17;;;7.30;;
16294;SDS011;8255;49.560;8.244;2023-03-01T00:33:52;10.00;;;7.73;;
16294;SDS011;8255;49.560;8.244;2023-03-01T00:36:22;8.33;;;7.23;;
16294;SDS011;8255;49.560;8.244;2023-03-01T00:38:50;10.27;;;7.53;;
16294;SDS011;8255;49.560;8.244;2023-03-01T00:41:17;10.83;;;8.60;;
16294;SDS011;8255;49.560;8.244;2023-03-01T00:43:44;9.50;;;7.37;;
16294;SDS011;8255;49.560;8.244;2023-03-01T00:46:11;9.97;;;7.60;;
16294;SDS011;8255;49.560;8.244;2023-03-01T00:48:38;12.80;;;7.97;;
16294;SDS011;8255;49.560;8.244;2023-03-01T00:51:05;9.77;;;8.30;;
16294;SDS011;8255;49.560;8.244;2023-03-01T00:53:31;10.73;;;8.67;;
16294;SDS011;8255;49.560;8.244;2023-03-01T00:55:59;10.60;;;7.60;;
16294;SDS011;8255;49.560;8.244;2023-03-01T00:58:26;11.50;;;9.03;;
16294;SDS011;8255;49.560;8.244;2023-03-01T01:00:52;10.17;;;8.10;;
16294;SDS011;8255;49.560;8.244;2023-03-01T01:03:18;11.70;;;8.33;;
16294;SDS011;8255;49.560;8.244;2023-03-01T01:05:45;12.80;;;8.50;;
16294;SDS011;8255;49.560;8.244;2023-03-01T01:08:11;12.00;;;8.73;;
16294;SDS011;8255;49.560;8.244;2023-03-01T01:10:37;10.10;;;8.27;;
16294;SDS011;8255;49.560;8.244;2023-03-01T01:13:05;11.70;;;9.00;;
16294;SDS011;8255;49.560;8.244;2023-03-01T01:15:34;12.37;;;9.10;;
16294;SDS011;8255;49.560;8.244;2023-03-01T01:18:01;11.97;;;9.40;;
16294;SDS011;8255;49.560;8.244;2023-03-01T01:20:27;13.27;;;9.00;;
16294;SDS011;8255;49.560;8.244;2023-03-01T01:22:53;11.97;;;9.13;;
16294;SDS011;8255;49.560;8.244;2023-03-01T01:25:20;14.70;;;9.20;;
16294;SDS011;8255;49.560;8.244;2023-03-01T01:27:46;9.77;;;8.53;;
16294;SDS011;8255;49.560;8.244;2023-03-01T01:30:14;15.47;;;8.67;;
16294;SDS011;8255;49.560;8.244;2023-03-01T01:32:40;11.43;;;9.07;;
16294;SDS011;8255;49.560;8.244;2023-03-01T01:35:07;12.13;;;8.93;;
16294;SDS011;8255;49.560;8.244;2023-03-01T01:37:34;14.20;;;9.40;;
16294;SDS011;8255;49.560;8.244;2023-03-01T01:40:01;10.23;;;8.30;;
16294;SDS011;8255;49.560;8.244;2023-03-01T01:42:29;13.70;;;9.23;;
16294;SDS011;8255;49.560;8.244;2023-03-01T01:47:42;11.97;;;8.97;;
16294;SDS011;8255;49.560;8.244;2023-03-01T01:50:08;11.00;;;8.80;;
16294;SDS011;8255;49.560;8.244;2023-03-01T01:52:40;13.10;;;8.67;;
16294;SDS011;8255;49.560;8.244;2023-03-01T01:55:07;10.87;;;8.63;;
16294;SDS011;8255;49.560;8.244;2023-03-01T01:57:36;13.53;;;9.07;;
16294;SDS011;8255;49.560;8.244;2023-03-01T02:00:05;12.23;;;9.03;;
16294;SDS011;8255;49.560;8.244;2023-03-01T02:02:38;14.00;;;9.40;;
16294;SDS011;8255;49.560;8.244;2023-03-01T02:05:09;10.80;;;8.73;;
16294;SDS011;8255;49.560;8.244;2023-03-01T02:07:36;11.37;;;8.60;;
16294;SDS011;8255;49.560;8.244;2023-03-01T02:10:05;13.67;;;9.80;;
16294;SDS011;8255;49.560;8.244;2023-03-01T02:12:31;11.00;;;8.60;;
16294;SDS011;8255;49.560;8.244;2023-03-01T02:14:58;11.13;;;8.87;;
16294;SDS011;8255;49.560;8.244;2023-03-01T02:17:24;11.87;;;8.97;;
16294;SDS011;8255;49.560;8.244;2023-03-01T02:19:55;11.63;;;8.73;;
16294;SDS011;8255;49.560;8.244;2023-03-01T02:22:25;15.63;;;8.97;;
16294;SDS011;8255;49.560;8.244;2023-03-01T02:24:59;11.17;;;9.40;;
16294;SDS011;8255;49.560;8.244;2023-03-01T02:27:31;11.17;;;8.77;;
16294;SDS011;8255;49.560;8.244;2023-03-01T02:30:00;10.87;;;9.37;;
16294;SDS011;8255;49.560;8.244;2023-03-01T02:32:27;14.00;;;9.10;;
16294;SDS011;8255;49.560;8.244;2023-03-01T02:34:54;11.83;;;8.90;;
16294;SDS011;8255;49.560;8.244;2023-03-01T02:37:21;12.17;;;8.97;;
16294;SDS011;8255;49.560;8.244;2023-03-01T02:39:50;12.40;;;9.17;;
16294;SDS011;8255;49.560;8.244;2023-03-01T02:42:19;12.57;;;8.93;;
16294;SDS011;8255;49.560;8.244;2023-03-01T02:44:48;13.63;;;8.73;;
16294;SDS011;8255;49.560;8.244;2023-03-01T02:47:16;11.23;;;8.70;;
16294;SDS011;8255;49.560;8.244;2023-03-01T02:49:43;13.57;;;9.53;;
16294;SDS011;8255;49.560;8.244;2023-03-01T02:52:18;12.77;;;9.03;;
16294;SDS011;8255;49.560;8.244;2023-03-01T02:54:48;12.83;;;8.60;;
16294;SDS011;8255;49.560;8.244;2023-03-01T02:57:16;11.37;;;8.60;;
16294;SDS011;8255;49.560;8.244;2023-03-01T02:59:44;12.37;;;9.13;;
16294;SDS011;8255;49.560;8.244;2023-03-01T03:02:19;14.83;;;8.93;;
16294;SDS011;8255;49.560;8.244;2023-03-01T03:05:02;11.73;;;8.93;;
16294;SDS011;8255;49.560;8.244;2023-03-01T03:07:28;15.40;;;9.40;;
16294;SDS011;8255;49.560;8.244;2023-03-01T03:09:55;15.00;;;9.97;;
16294;SDS011;8255;49.560;8.244;2023-03-01T03:12:21;14.20;;;8.87;;
16294;SDS011;8255;49.560;8.244;2023-03-01T03:14:48;14.33;;;9.03;;
16294;SDS011;8255;49.560;8.244;2023-03-01T03:17:14;13.10;;;8.23;;
16294;SDS011;8255;49.560;8.244;2023-03-01T03:19:42;13.20;;;9.63;;
16294;SDS011;8255;49.560;8.244;2023-03-01T03:22:10;14.17;;;9.37;;
16294;SDS011;8255;49.560;8.244;2023-03-01T03:24:36;14.67;;;9.73;;
16294;SDS011;8255;49.560;8.244;2023-03-01T03:27:03;13.33;;;9.10;;
16294;SDS011;8255;49.560;8.244;2023-03-01T03:29:29;11.27;;;9.40;;
16294;SDS011;8255;49.560;8.244;2023-03-01T03:31:56;12.93;;;9.57;;
16294;SDS011;8255;49.560;8.244;2023-03-01T03:34:22;13.63;;;9.73;;
16294;SDS011;8255;49.560;8.244;2023-03-01T03:36:53;14.73;;;9.27;;
16294;SDS011;8255;49.560;8.244;2023-03-01T03:39:24;14.37;;;9.17;;
16294;SDS011;8255;49.560;8.244;2023-03-01T03:41:50;14.53;;;10.10;;
16294;SDS011;8255;49.560;8.244;2023-03-01T03:44:16;12.70;;;9.60;;
16294;SDS011;8255;49.560;8.244;2023-03-01T03:46:43;13.53;;;9.93;;
16294;SDS011;8255;49.560;8.244;2023-03-01T03:49:09;15.20;;;9.70;;
16294;SDS011;8255;49.560;8.244;2023-03-01T03:51:35;15.57;;;10.13;;
16294;SDS011;8255;49.560;8.244;2023-03-01T03:54:03;13.67;;;9.67;;
16294;SDS011;8255;49.560;8.244;2023-03-01T03:56:29;13.23;;;9.80;;
16294;SDS011;8255;49.560;8.244;2023-03-01T03:58:56;13.67;;;8.93;;
16294;SDS011;8255;49.560;8.244;2023-03-01T04:01:22;13.10;;;9.43;;
16294;SDS011;8255;49.560;8.244;2023-03-01T04:03:48;13.53;;;9.30;;
16294;SDS011;8255;49.560;8.244;2023-03-01T04:06:19;13.13;;;9.57;;
16294;SDS011;8255;49.560;8.244;2023-03-01T04:08:45;13.00;;;9.40;;
16294;SDS011;8255;49.560;8.244;2023-03-01T04:11:13;14.40;;;10.00;;
16294;SDS011;8255;49.560;8.244;2023-03-01T04:13:55;13.43;;;9.33;;
16294;SDS011;8255;49.560;8.244;2023-03-01T04:16:22;13.13;;;9.93;;
16294;SDS011;8255;49.560;8.244;2023-03-01T04:18:49;13.57;;;8.87;;
16294;SDS011;8255;49.560;8.244;2023-03-01T04:21:15;14.00;;;9.53;;
16294;SDS011;8255;49.560;8.244;2023-03-01T04:23:42;12.00;;;9.80;;
16294;SDS011;8255;49.560;8.244;2023-03-01T04:26:08;12.23;;;9.57;;
16294;SDS011;8255;49.560;8.244;2023-03-01T04:28:37;15.13;;;9.57;;
16294;SDS011;8255;49.560;8.244;2023-03-01T04:31:05;16.40;;;10.50;;
16294;SDS011;8255;49.560;8.244;2023-03-01T04:33:38;13.93;;;9.20;;
16294;SDS011;8255;49.560;8.244;2023-03-01T04:36:04;13.37;;;9.47;;
16294;SDS011;8255;49.560;8.244;2023-03-01T04:38:33;14.87;;;10.27;;
16294;SDS011;8255;49.560;8.244;2023-03-01T04:41:00;14.33;;;9.57;;
16294;SDS011;8255;49.560;8.244;2023-03-01T04:43:28;13.50;;;9.40;;
16294;SDS011;8255;49.560;8.244;2023-03-01T04:45:56;14.80;;;10.10;;
16294;SDS011;8255;49.560;8.244;2023-03-01T04:48:27;15.83;;;10.00;;
16294;SDS011;8255;49.560;8.244;2023-03-01T04:50:54;16.27;;;9.80;;
16294;SDS011;8255;49.560;8.244;2023-03-01T04:53:20;15.90;;;10.90;;
16294;SDS011;8255;49.560;8.244;2023-03-01T04:55:47;13.10;;;9.90;;
16294;SDS011;8255;49.560;8.244;2023-03-01T04:58:13;15.27;;;10.10;;
16294;SDS011;8255;49.560;8.244;2023-03-01T05:00:39;17.70;;;10.60;;
16294;SDS011;8255;49.560;8.244;2023-03-01T05:03:07;14.60;;;10.83;;
16294;SDS011;8255;49.560;8.244;2023-03-01T05:05:34;16.00;;;10.80;;
16294;SDS011;8255;49.560;8.244;2023-03-01T05:08:02;15.43;;;10.43;;
16294;SDS011;8255;49.560;8.244;2023-03-01T05:10:29;14.50;;;10.50;;
16294;SDS011;8255;49.560;8.244;2023-03-01T05:12:59;17.90;;;10.63;;
16294;SDS011;8255;49.560;8.244;2023-03-01T05:15:26;13.83;;;10.33;;
16294;SDS011;8255;49.560;8.244;2023-03-01T05:17:53;15.03;;;10.50;;
16294;SDS011;8255;49.560;8.244;2023-03-01T05:20:21;15.57;;;9.63;;
16294;SDS011;8255;49.560;8.244;2023-03-01T05:22:48;16.17;;;11.03;;
16294;SDS011;8255;49.560;8.244;2023-03-01T05:25:15;14.90;;;10.53;;
16294;SDS011;8255;49.560;8.244;2023-03-01T05:27:41;14.90;;;10.30;;
16294;SDS011;8255;49.560;8.244;2023-03-01T05:30:08;15.37;;;10.27;;
16294;SDS011;8255;49.560;8.244;2023-03-01T05:32:42;15.70;;;10.80;;
16294;SDS011;8255;49.560;8.244;2023-03-01T05:35:10;14.03;;;10.57;;
16294;SDS011;8255;49.560;8.244;2023-03-01T05:37:40;16.60;;;11.07;;
16294;SDS011;8255;49.560;8.244;2023-03-01T05:40:07;15.50;;;11.07;;
16294;SDS011;8255;49.560;8.244;2023-03-01T05:42:40;15.13;;;10.27;;
16294;SDS011;8255;49.560;8.244;2023-03-01T05:45:07;12.67;;;9.40;;
16294;SDS011;8255;49.560;8.244;2023-03-01T05:47:35;15.70;;;10.60;;
16294;SDS011;8255;49.560;8.244;2023-03-01T05:50:01;13.53;;;10.67;;
16294;SDS011;8255;49.560;8.244;2023-03-01T05:52:27;15.80;;;10.93;;
16294;SDS011;8255;49.560;8.244;2023-03-01T05:54:55;17.43;;;11.13;;
16294;SDS011;8255;49.560;8.244;2023-03-01T05:57:22;15.33;;;10.83;;
16294;SDS011;8255;49.560;8.244;2023-03-01T05:59:48;14.93;;;10.60;;
16294;SDS011;8255;49.560;8.244;2023-03-01T06:02:14;13.63;;;10.37;;
16294;SDS011;8255;49.560;8.244;2023-03-01T06:04:41;13.93;;;11.07;;
16294;SDS011;8255;49.560;8.244;2023-03-01T06:07:07;17.80;;;11.27;;
16294;SDS011;8255;49.560;8.244;2023-03-01T06:09:34;13.27;;;10.60;;
16294;SDS011;8255;49.560;8.244;2023-03-01T06:12:02;15.40;;;10.67;;
16294;SDS011;8255;49.560;8.244;2023-03-01T06:14:28;19.38;;;14.60;;
16294;SDS011;8255;49.560;8.244;2023-03-01T06:16:55;15.13;;;11.27;;
16294;SDS011;8255;49.560;8.244;2023-03-01T06:19:21;17.70;;;11.53;;
16294;SDS011;8255;49.560;8.244;2023-03-01T06:21:48;17.80;;;12.23;;
16294;SDS011;8255;49.560;8.244;2023-03-01T06:24:14;15.90;;;11.30;;
16294;SDS011;8255;49.560;8.244;2023-03-01T06:26:41;17.37;;;10.70;;
16294;SDS011;8255;49.560;8.244;2023-03-01T06:29:09;15.17;;;11.23;;
16294;SDS011;8255;49.560;8.244;2023-03-01T06:31:35;16.97;;;11.80;;
16294;SDS011;8255;49.560;8.244;2023-03-01T06:34:02;16.83;;;9.90;;
16294;SDS011;8255;49.560;8.244;2023-03-01T06:36:29;11.13;;;9.03;;
16294;SDS011;8255;49.560;8.244;2023-03-01T06:38:55;15.33;;;10.00;;
16294;SDS011;8255;49.560;8.244;2023-03-01T06:41:21;16.88;;;14.02;;
16294;SDS011;8255;49.560;8.244;2023-03-01T06:43:48;16.20;;;11.77;;
16294;SDS011;8255;49.560;8.244;2023-03-01T06:46:15;14.37;;;10.83;;
16294;SDS011;8255;49.560;8.244;2023-03-01T06:48:42;17.97;;;11.33;;
16294;SDS011;8255;49.560;8.244;2023-03-01T06:51:09;16.37;;;11.47;;
16294;SDS011;8255;49.560;8.244;2023-03-01T06:53:36;16.80;;;11.20;;
16294;SDS011;8255;49.560;8.244;2023-03-01T06:56:02;14.07;;;10.90;;
16294;SDS011;8255;49.560;8.244;2023-03-01T06:58:28;14.13;;;10.63;;
16294;SDS011;8255;49.560;8.244;2023-03-01T07:00:55;15.00;;;10.37;;
16294;SDS011;8255;49.560;8.244;2023-03-01T07:03:23;18.87;;;12.07;;
16294;SDS011;8255;49.560;8.244;2023-03-01T07:05:49;15.07;;;11.53;;
16294;SDS011;8255;49.560;8.244;2023-03-01T07:08:17;17.13;;;11.10;;
16294;SDS011;8255;49.560;8.244;2023-03-01T07:10:44;16.33;;;11.13;;
16294;SDS011;8255;49.560;8.244;2023-03-01T07:13:10;14.83;;;11.10;;
16294;SDS011;8255;49.560;8.244;2023-03-01T07:15:37;16.07;;;12.40;;
16294;SDS011;8255;49.560;8.244;2023-03-01T07:18:03;15.47;;;10.73;;
16294;SDS011;8255;49.560;8.244;2023-03-01T07:20:34;14.90;;;10.07;;
16294;SDS011;8255;49.560;8.244;2023-03-01T07:23:00;17.27;;;10.23;;
16294;SDS011;8255;49.560;8.244;2023-03-01T07:25:27;14.33;;;10.13;;
16294;SDS011;8255;49.560;8.244;2023-03-01T07:27:53;14.20;;;10.80;;
16294;SDS011;8255;49.560;8.244;2023-03-01T07:30:20;16.23;;;11.73;;
16294;SDS011;8255;49.560;8.244;2023-03-01T07:32:47;14.97;;;11.10;;
16294;SDS011;8255;49.560;8.244;2023-03-01T07:35:13;14.10;;;11.00;;
16294;SDS011;8255;49.560;8.244;2023-03-01T07:37:42;14.97;;;11.33;;
16294;SDS011;8255;49.560;8.244;2023-03-01T07:40:09;13.80;;;10.93;;
16294;SDS011;8255;49.560;8.244;2023-03-01T07:42:35;15.07;;;10.97;;
16294;SDS011;8255;49.560;8.244;2023-03-01T07:45:01;14.00;;;10.70;;
16294;SDS011;8255;49.560;8.244;2023-03-01T07:47:28;16.07;;;11.07;;
16294;SDS011;8255;49.560;8.244;2023-03-01T07:49:54;14.43;;;11.40;;
16294;SDS011;8255;49.560;8.244;2023-03-01T07:52:21;18.10;;;11.17;;
16294;SDS011;8255;49.560;8.244;2023-03-01T07:54:49;14.20;;;10.80;;
16294;SDS011;8255;49.560;8.244;2023-03-01T07:57:15;14.60;;;10.97;;
16294;SDS011;8255;49.560;8.244;2023-03-01T07:59:41;13.70;;;11.10;;
16294;SDS011;8255;49.560;8.244;2023-03-01T08:02:08;16.40;;;11.33;;
16294;SDS011;8255;49.560;8.244;2023-03-01T08:04:34;15.07;;;11.27;;
16294;SDS011;8255;49.560;8.244;2023-03-01T08:07:01;14.57;;;11.60;;
16294;SDS011;8255;49.560;8.244;2023-03-01T08:09:27;14.70;;;10.73;;
16294;SDS011;8255;49.560;8.244;2023-03-01T08:11:55;15.73;;;10.57;;
16294;SDS011;8255;49.560;8.244;2023-03-01T08:14:22;13.67;;;10.93;;
16294;SDS011;8255;49.560;8.244;2023-03-01T08:16:48;18.83;;;11.37;;
16294;SDS011;8255;49.560;8.244;2023-03-01T08:19:15;12.60;;;11.30;;
16294;SDS011;8255;49.560;8.244;2023-03-01T08:21:43;12.77;;;10.40;;
16294;SDS011;8255;49.560;8.244;2023-03-01T08:24:09;14.50;;;11.53;;
16294;SDS011;8255;49.560;8.244;2023-03-01T08:26:36;15.20;;;11.03;;
16294;SDS011;8255;49.560;8.244;2023-03-01T08:29:04;21.27;;;11.23;;
16294;SDS011;8255;49.560;8.244;2023-03-01T08:31:31;15.23;;;11.07;;
16294;SDS011;8255;49.560;8.244;2023-03-01T08:34:00;13.77;;;10.20;;
16294;SDS011;8255;49.560;8.244;2023-03-01T08:36:27;15.73;;;11.03;;
16294;SDS011;8255;49.560;8.244;2023-03-01T08:38:54;15.77;;;11.83;;
16294;SDS011;8255;49.560;8.244;2023-03-01T08:41:21;13.00;;;10.27;;
16294;SDS011;8255;49.560;8.244;2023-03-01T08:43:47;21.47;;;14.37;;
16294;SDS011;8255;49.560;8.244;2023-03-01T08:46:15;15.93;;;12.00;;
16294;SDS011;8255;49.560;8.244;2023-03-01T08:48:41;13.07;;;11.67;;
16294;SDS011;8255;49.560;8.244;2023-03-01T08:51:08;13.93;;;11.27;;
16294;SDS011;8255;49.560;8.244;2023-03-01T08:53:35;14.33;;;11.07;;
16294;SDS011;8255;49.560;8.244;2023-03-01T08:56:01;15.00;;;11.77;;
16294;SDS011;8255;49.560;8.244;2023-03-01T08:58:28;17.57;;;11.70;;
16294;SDS011;8255;49.560;8.244;2023-03-01T09:00:54;16.03;;;11.90;;
16294;SDS011;8255;49.560;8.244;2023-03-01T09:03:22;16.07;;;10.73;;
16294;SDS011;8255;49.560;8.244;2023-03-01T09:05:49;13.00;;;11.57;;
16294;SDS011;8255;49.560;8.244;2023-03-01T09:08:16;14.50;;;11.70;;
16294;SDS011;8255;49.560;8.244;2023-03-01T09:10:42;13.97;;;10.40;;
16294;SDS011;8255;49.560;8.244;2023-03-01T09:13:08;19.57;;;11.07;;
16294;SDS011;8255;49.560;8.244;2023-03-01T09:15:36;13.90;;;11.00;;
16294;SDS011;8255;49.560;8.244;2023-03-01T09:18:02;14.60;;;11.13;;
16294;SDS011;8255;49.560;8.244;2023-03-01T09:20:31;16.97;;;11.30;;
16294;SDS011;8255;49.560;8.244;2023-03-01T09:22:57;14.80;;;12.10;;
16294;SDS011;8255;49.560;8.244;2023-03-01T09:25:24;15.60;;;12.23;;
16294;SDS011;8255;49.560;8.244;2023-03-01T09:27:51;13.57;;;11.25;;
16294;SDS011;8255;49.560;8.244;2023-03-01T09:30:17;14.17;;;11.90;;
16294;SDS011;8255;49.560;8.244;2023-03-01T09:32:44;13.88;;;11.73;;
16294;SDS011;8255;49.560;8.244;2023-03-01T09:35:10;14.93;;;12.15;;
16294;SDS011;8255;49.560;8.244;2023-03-01T09:37:38;11.70;;;10.48;;
16294;SDS011;8255;49.560;8.244;2023-03-01T09:40:05;15.32;;;12.45;;
16294;SDS011;8255;49.560;8.244;2023-03-01T09:42:32;13.88;;;11.52;;
16294;SDS011;8255;49.560;8.244;2023-03-01T09:45:00;13.93;;;11.90;;
16294;SDS011;8255;49.560;8.244;2023-03-01T09:47:28;13.40;;;11.47;;
16294;SDS011;8255;49.560;8.244;2023-03-01T09:49:57;14.30;;;11.83;;
16294;SDS011;8255;49.560;8.244;2023-03-01T09:52:28;16.23;;;12.33;;
16294;SDS011;8255;49.560;8.244;2023-03-01T09:54:56;13.55;;;12.02;;
16294;SDS011;8255;49.560;8.244;2023-03-01T09:57:26;12.30;;;10.98;;
16294;SDS011;8255;49.560;8.244;2023-03-01T09:59:56;13.65;;;12.07;;
16294;SDS011;8255;49.560;8.244;2023-03-01T10:02:26;14.95;;;12.60;;
16294;SDS011;8255;49.560;8.244;2023-03-01T10:04:54;16.52;;;13.10;;
16294;SDS011;8255;49.560;8.244;2023-03-01T10:07:24;14.27;;;12.77;;
16294;SDS011;8255;49.560;8.244;2023-03-01T10:09:53;15.18;;;11.55;;
16294;SDS011;8255;49.560;8.244;2023-03-01T10:12:22;14.98;;;12.13;;
16294;SDS011;8255;49.560;8.244;2023-03-01T10:14:51;19.10;;;12.80;;
16294;SDS011;8255;49.560;8.244;2023-03-01T10:17:23;14.30;;;12.50;;
16294;SDS011;8255;49.560;8.244;2023-03-01T10:19:51;15.55;;;12.85;;
16294;SDS011;8255;49.560;8.244;2023-03-01T10:22:17;13.30;;;11.90;;
16294;SDS011;8255;49.560;8.244;2023-03-01T10:24:46;14.65;;;11.93;;
16294;SDS011;8255;49.560;8.244;2023-03-01T10:27:14;16.35;;;12.45;;
16294;SDS011;8255;49.560;8.244;2023-03-01T10:29:46;12.90;;;11.60;;
16294;SDS011;8255;49.560;8.244;2023-03-01T10:32:14;16.65;;;12.95;;
16294;SDS011;8255;49.560;8.244;2023-03-01T10:34:41;13.48;;;12.07;;
16294;SDS011;8255;49.560;8.244;2023-03-01T10:37:11;15.02;;;11.60;;
16294;SDS011;8255;49.560;8.244;2023-03-01T10:39:37;14.57;;;12.00;;
16294;SDS011;8255;49.560;8.244;2023-03-01T10:42:22;15.75;;;12.07;;
16294;SDS011;8255;49.560;8.244;2023-03-01T10:44:52;15.38;;;12.38;;
16294;SDS011;8255;49.560;8.244;2023-03-01T10:47:20;14.55;;;12.73;;
16294;SDS011;8255;49.560;8.244;2023-03-01T10:49:54;17.90;;;13.60;;
16294;SDS011;8255;49.560;8.244;2023-03-01T10:52:21;14.68;;;12.77;;
16294;SDS011;8255;49.560;8.244;2023-03-01T10:54:51;15.88;;;13.23;;
16294;SDS011;8255;49.560;8.244;2023-03-01T10:57:24;15.23;;;13.15;;
16294;SDS011;8255;49.560;8.244;2023-03-01T11:00:01;15.50;;;12.95;;
16294;SDS011;8255;49.560;8.244;2023-03-01T11:02:29;16.85;;;13.50;;
16294;SDS011;8255;49.560;8.244;2023-03-01T11:04:58;17.55;;;13.90;;
16294;SDS011;8255;49.560;8.244;2023-03-01T11:07:25;15.32;;;12.90;;
16294;SDS011;8255;49.560;8.244;2023-03-01T11:09:51;16.38;;;13.38;;
16294;SDS011;8255;49.560;8.244;2023-03-01T11:12:17;15.57;;;13.05;;
16294;SDS011;8255;49.560;8.244;2023-03-01T11:14:46;14.98;;;13.32;;
16294;SDS011;8255;49.560;8.244;2023-03-01T11:17:15;16.80;;;12.85;;
16294;SDS011;8255;49.560;8.244;2023-03-01T11:19:43;15.10;;;13.52;;
16294;SDS011;8255;49.560;8.244;2023-03-01T11:22:25;16.55;;;13.05;;
16294;SDS011;8255;49.560;8.244;2023-03-01T11:24:53;15.38;;;13.60;;
16294;SDS011;8255;49.560;8.244;2023-03-01T11:27:21;16.50;;;13.68;;
16294;SDS011;8255;49.560;8.244;2023-03-01T11:29:50;16.13;;;13.30;;
16294;SDS011;8255;49.560;8.244;2023-03-01T11:32:19;14.93;;;13.32;;
16294;SDS011;8255;49.560;8.244;2023-03-01T11:34:47;14.77;;;13.27;;
16294;SDS011;8255;49.560;8.244;2023-03-01T11:37:16;17.30;;;14.15;;
16294;SDS011;8255;49.560;8.244;2023-03-01T11:39:51;16.27;;;13.25;;
16294;SDS011;8255;49.560;8.244;2023-03-01T11:42:20;17.27;;;14.40;;
16294;SDS011;8255;49.560;8.244;2023-03-01T11:44:47;15.13;;;13.48;;
16294;SDS011;8255;49.560;8.244;2023-03-01T11:47:21;15.38;;;13.45;;
16294;SDS011;8255;49.560;8.244;2023-03-01T11:50:02;16.42;;;12.93;;
16294;SDS011;8255;49.560;8.244;2023-03-01T11:52:33;14.93;;;13.18;;
16294;SDS011;8255;49.560;8.244;2023-03-01T11:55:12;14.50;;;12.77;;
16294;SDS011;8255;49.560;8.244;2023-03-01T11:57:47;15.32;;;13.27;;
16294;SDS011;8255;49.560;8.244;2023-03-01T12:00:23;15.57;;;13.93;;
16294;SDS011;8255;49.560;8.244;2023-03-01T12:02:58;14.35;;;12.85;;
16294;SDS011;8255;49.560;8.244;2023-03-01T12:05:44;17.10;;;13.35;;
16294;SDS011;8255;49.560;8.244;2023-03-01T12:08:13;15.13;;;12.50;;
16294;SDS011;8255;49.560;8.244;2023-03-01T12:10:42;14.13;;;12.27;;
16294;SDS011;8255;49.560;8.244;2023-03-01T12:13:27;16.02;;;13.48;;
16294;SDS011;8255;49.560;8.244;2023-03-01T12:16:13;15.00;;;13.10;;
16294;SDS011;8255;49.560;8.244;2023-03-01T12:21:29;14.32;;;12.35;;
16294;SDS011;8255;49.560;8.244;2023-03-01T12:24:12;15.57;;;13.57;;
16294;SDS011;8255;49.560;8.244;2023-03-01T12:26:40;16.42;;;13.35;;
16294;SDS011;8255;49.560;8.244;2023-03-01T12:29:15;15.65;;;14.02;;
16294;SDS011;8255;49.560;8.244;2023-03-01T12:34:33;19.48;;;13.32;;
16294;SDS011;8255;49.560;8.244;2023-03-01T12:37:11;13.90;;;12.23;;
16294;SDS011;8255;49.560;8.244;2023-03-01T12:39:42;15.45;;;13.10;;
16294;SDS011;8255;49.560;8.244;2023-03-01T12:42:17;15.55;;;13.25;;
16294;SDS011;8255;49.560;8.244;2023-03-01T12:44:51;16.38;;;12.38;;
16294;SDS011;8255;49.560;8.244;2023-03-01T12:47:24;16.25;;;12.95;;
16294;SDS011;8255;49.560;8.244;2023-03-01T12:49:54;15.80;;;13.55;;
16294;SDS011;8255;49.560;8.244;2023-03-01T12:52:24;15.82;;;13.77;;
16294;SDS011;8255;49.560;8.244;2023-03-01T12:54:53;17.90;;;14.20;;
16294;SDS011;8255;49.560;8.244;2023-03-01T12:57:22;15.00;;;13.00;;
16294;SDS011;8255;49.560;8.244;2023-03-01T12:59:51;16.80;;;12.73;;
16294;SDS011;8255;49.560;8.244;2023-03-01T13:02:26;18.85;;;13.18;;
16294;SDS011;8255;49.560;8.244;2023-03-01T13:05:00;18.08;;;13.73;;
16294;SDS011;8255;49.560;8.244;2023-03-01T13:07:30;18.00;;;13.57;;
16294;SDS011;8255;49.560;8.244;2023-03-01T13:10:03;14.73;;;12.88;;
16294;SDS011;8255;49.560;8.244;2023-03-01T13:12:45;15.27;;;12.57;;
16294;SDS011;8255;49.560;8.244;2023-03-01T13:15:27;13.10;;;10.02;;
16294;SDS011;8255;49.560;8.244;2023-03-01T13:17:54;13.07;;;10.90;;
16294;SDS011;8255;49.560;8.244;2023-03-01T13:20:23;14.50;;;11.85;;
16294;SDS011;8255;49.560;8.244;2023-03-01T13:23:00;12.63;;;11.32;;
16294;SDS011;8255;49.560;8.244;2023-03-01T13:25:26;12.27;;;11.00;;
16294;SDS011;8255;49.560;8.244;2023-03-01T13:27:53;13.00;;;11.50;;
16294;SDS011;8255;49.560;8.244;2023-03-01T13:30:40;12.32;;;10.55;;
16294;SDS011;8255;49.560;8.244;2023-03-01T13:35:52;11.48;;;10.27;;
16294;SDS011;8255;49.560;8.244;2023-03-01T13:38:39;12.43;;;10.70;;
16294;SDS011;8255;49.560;8.244;2023-03-01T13:41:11;12.77;;;10.50;;
16294;SDS011;8255;49.560;8.244;2023-03-01T13:43:38;11.32;;;9.65;;
16294;SDS011;8255;49.560;8.244;2023-03-01T13:46:07;11.07;;;9.85;;
16294;SDS011;8255;49.560;8.244;2023-03-01T13:48:34;10.55;;;9.45;;
16294;SDS011;8255;49.560;8.244;2023-03-01T13:51:02;12.35;;;8.90;;
16294;SDS011;8255;49.560;8.244;2023-03-01T13:53:29;15.35;;;11.68;;
16294;SDS011;8255;49.560;8.244;2023-03-01T13:55:58;10.85;;;9.70;;
16294;SDS011;8255;49.560;8.244;2023-03-01T13:58:28;11.90;;;9.90;;
16294;SDS011;8255;49.560;8.244;2023-03-01T14:00:56;11.88;;;10.07;;
16294;SDS011;8255;49.560;8.244;2023-03-01T14:03:23;11.68;;;10.57;;
16294;SDS011;8255;49.560;8.244;2023-03-01T14:06:00;11.20;;;9.98;;
16294;SDS011;8255;49.560;8.244;2023-03-01T14:08:28;12.18;;;9.85;;
16294;SDS011;8255;49.560;8.244;2023-03-01T14:11:06;10.95;;;9.85;;
16294;SDS011;8255;49.560;8.244;2023-03-01T14:13:38;11.95;;;9.50;;
16294;SDS011;8255;49.560;8.244;2023-03-01T14:16:11;13.05;;;9.13;;
16294;SDS011;8255;49.560;8.244;2023-03-01T14:18:41;10.07;;;8.90;;
16294;SDS011;8255;49.560;8.244;2023-03-01T14:21:12;10.32;;;9.23;;
16294;SDS011;8255;49.560;8.244;2023-03-01T14:23:39;10.77;;;9.18;;
16294;SDS011;8255;49.560;8.244;2023-03-01T14:26:08;12.40;;;9.75;;
16294;SDS011;8255;49.560;8.244;2023-03-01T14:28:37;8.88;;;7.85;;
16294;SDS011;8255;49.560;8.244;2023-03-01T14:33:45;10.23;;;8.65;;
16294;SDS011;8255;49.560;8.244;2023-03-01T14:36:25;8.82;;;7.93;;
16294;SDS011;8255;49.560;8.244;2023-03-01T14:38:52;9.40;;;8.10;;
16294;SDS011;8255;49.560;8.244;2023-03-01T14:41:21;12.48;;;8.10;;
16294;SDS011;8255;49.560;8.244;2023-03-01T14:43:49;10.05;;;7.82;;
16294;SDS011;8255;49.560;8.244;2023-03-01T14:46:17;10.02;;;8.38;;
16294;SDS011;8255;49.560;8.244;2023-03-01T14:48:43;12.50;;;8.57;;
16294;SDS011;8255;49.560;8.244;2023-03-01T14:51:10;11.32;;;9.50;;
16294;SDS011;8255;49.560;8.244;2023-03-01T14:53:37;9.38;;;8.45;;
16294;SDS011;8255;49.560;8.244;2023-03-01T14:56:04;10.20;;;8.57;;
16294;SDS011;8255;49.560;8.244;2023-03-01T14:58:32;9.85;;;8.48;;
16294;SDS011;8255;49.560;8.244;2023-03-01T15:00:59;12.38;;;9.15;;
16294;SDS011;8255;49.560;8.244;2023-03-01T15:03:27;9.43;;;8.35;;